Time;durP1;ratioP1;P1;durP2;ratioP2;P2;SDS_P1;SDS_P2;PMS_P1;PMS_P2;Temp;Humidity;BMP_temperature;BMP_pressure;BME280_temperature;BME280_humidity;BME280_pressure;Samples;Min_cycle;Max_cycle;Signal;HPM_P1;HPM_P2
2021/07/27 00:02:37;;;;;;;7.05;4.30;;;;;;;25.10;100.00;101343.19;4980520;28;20474;-71
2021/07/27 00:05:23;;;;;;;6.63;4.50;;;;;;;24.85;100.00;101343.09;4981616;28;20034;-71
2021/07/27 00:08:09;;;;;;;8.57;5.30;;;;;;;24.59;100.00;101346.63;4994357;28;20478;-71
2021/07/27 00:10:54;;;;;;;13.27;5.40;;;;;;;24.88;100.00;101335.75;4997979;28;20121;-71
2021/07/27 00:13:40;;;;;;;6.95;4.90;;;;;;;24.92;100.00;101344.44;4998084;28;20096;-71
2021/07/27 00:16:26;;;;;;;7.35;5.40;;;;;;;24.95;100.00;101341.56;4997758;28;20124;-71
2021/07/27 00:19:12;;;;;;;8.23;5.30;;;;;;;25.08;100.00;101354.00;4998469;28;20175;-71
2021/07/27 00:21:57;;;;;;;7.13;4.38;;;;;;;24.94;100.00;101355.91;4997771;28;20092;-71
2021/07/27 00:24:43;;;;;;;5.03;4.30;;;;;;;24.88;100.00;101350.97;4998628;28;20050;-71
2021/07/27 00:27:29;;;;;;;5.25;3.88;;;;;;;24.99;100.00;101349.28;4997938;28;20040;-71
2021/07/27 00:30:15;;;;;;;8.43;4.35;;;;;;;24.93;100.00;101355.06;4997769;28;20117;-71
2021/07/27 00:33:01;;;;;;;11.23;4.28;;;;;;;24.75;100.00;101350.91;4985060;28;20038;-72
2021/07/27 00:35:47;;;;;;;6.40;4.20;;;;;;;25.04;100.00;101346.28;4998832;28;20485;-72
2021/07/27 00:38:32;;;;;;;7.00;4.70;;;;;;;25.00;100.00;101353.66;4997820;28;20633;-72
2021/07/27 00:41:18;;;;;;;6.63;4.38;;;;;;;24.96;100.00;101344.13;4998656;28;20105;-72
2021/07/27 00:44:04;;;;;;;7.72;4.25;;;;;;;24.86;100.00;101340.34;4997828;28;20026;-72
2021/07/27 00:46:50;;;;;;;13.40;4.30;;;;;;;24.65;100.00;101346.25;4998489;28;20113;-72
2021/07/27 00:49:36;;;;;;;7.45;4.70;;;;;;;24.95;100.00;101338.88;4997482;28;20108;-72
2021/07/27 00:52:22;;;;;;;11.32;5.28;;;;;;;24.90;100.00;101340.97;4997234;28;20091;-72
2021/07/27 00:55:09;;;;;;;11.43;5.07;;;;;;;24.83;100.00;101348.56;4984411;28;20520;-72
2021/07/27 00:57:55;;;;;;;8.35;5.07;;;;;;;24.93;100.00;101344.31;4997784;28;20044;-72
2021/07/27 01:00:42;;;;;;;7.90;4.78;;;;;;;24.60;100.00;101356.38;4998050;28;20026;-72
2021/07/27 01:03:29;;;;;;;7.25;4.68;;;;;;;24.39;100.00;101347.91;4997232;28;20030;-72
2021/07/27 01:06:14;;;;;;;9.18;5.22;;;;;;;24.28;100.00;101352.22;4997252;28;20042;-72
2021/07/27 01:09:01;;;;;;;7.93;4.78;;;;;;;24.31;100.00;101341.34;4997217;28;20026;-71
2021/07/27 01:11:47;;;;;;;7.10;4.80;;;;;;;24.59;100.00;101349.31;4997979;28;20034;-72
2021/07/27 01:14:33;;;;;;;10.00;5.05;;;;;;;24.72;100.00;101345.75;4984927;28;20026;-72
2021/07/27 03:47:08;;;;;;;9.15;5.60;;;;;;;23.87;100.00;101348.59;5013767;28;20038;-71
2021/07/27 03:49:55;;;;;;;6.70;5.95;;;;;;;23.87;100.00;101343.25;5001495;28;20049;-72
2021/07/27 03:52:40;;;;;;;8.68;5.68;;;;;;;24.07;100.00;101356.28;5001193;28;20033;-71
2021/07/27 03:55:26;;;;;;;11.75;5.68;;;;;;;23.99;100.00;101361.25;5000924;28;20121;-72
2021/07/27 03:58:12;;;;;;;8.02;5.32;;;;;;;24.27;100.00;101364.75;5013923;28;20033;-71
2021/07/27 04:00:58;;;;;;;10.77;5.88;;;;;;;24.06;100.00;101362.59;5014991;28;20461;-72
2021/07/27 04:03:44;;;;;;;7.70;5.53;;;;;;;24.04;100.00;101367.19;5013697;28;20359;-72
2021/07/27 04:06:29;;;;;;;8.93;5.55;;;;;;;24.11;100.00;101358.66;5015024;28;20172;-71
2021/07/27 04:09:15;;;;;;;13.77;8.63;;;;;;;24.08;100.00;101353.50;5014925;28;20475;-71
2021/07/27 04:12:01;;;;;;;7.90;5.65;;;;;;;24.06;100.00;101359.94;5013930;28;20062;-71
2021/07/27 04:14:50;;;;;;;11.13;6.30;;;;;;;24.23;100.00;101357.03;5014906;28;20382;-71
2021/07/27 04:17:36;;;;;;;14.05;6.55;;;;;;;23.99;100.00;101355.91;5014721;28;20030;-71
2021/07/27 04:20:22;;;;;;;13.27;6.60;;;;;;;24.13;100.00;101361.25;5014555;28;20037;-71
2021/07/27 04:23:07;;;;;;;12.07;6.80;;;;;;;24.43;100.00;101368.19;5013591;28;20029;-71
2021/07/27 08:49:18;;;;;;;7.97;3.95;;;;;;;34.58;37.62;101389.81;5598434;22;20459;-71
2021/07/27 08:52:04;;;;;;;7.75;4.40;;;;;;;34.59;36.55;101394.25;5002969;28;20038;-71
2021/07/27 08:54:53;;;;;;;6.25;3.88;;;;;;;34.88;34.74;101392.81;5004260;28;20072;-72
2021/07/27 08:57:52;;;;;;;6.22;3.88;;;;;;;34.43;35.78;101377.88;5017813;28;20033;-71
2021/07/27 09:00:38;;;;;;;5.75;4.10;;;;;;;34.69;35.66;101384.06;5004922;28;20057;-72
2021/07/27 09:03:25;;;;;;;5.60;4.00;;;;;;;35.10;35.36;101380.44;5017634;28;20038;-72
2021/07/27 09:06:10;;;;;;;6.93;4.20;;;;;;;35.06;36.91;101374.50;5018595;28;20030;-73
2021/07/27 09:09:03;;;;;;;5.35;3.95;;;;;;;35.10;35.85;101375.00;5017163;28;20212;-72
2021/07/27 09:11:50;;;;;;;8.07;4.65;;;;;;;35.35;36.97;101365.84;5004653;28;20362;-72
2021/07/27 09:14:43;;;;;;;7.05;4.45;;;;;;;35.69;35.77;101369.22;5018079;28;20378;-72
2021/07/27 09:17:29;;;;;;;9.43;3.88;;;;;;;35.53;34.72;101365.66;5018820;28;20160;-73
2021/07/27 09:20:48;;;;;;;7.68;4.05;;;;;;;35.00;36.13;101377.03;5018178;28;20116;-73
2021/07/27 09:23:34;;;;;;;8.18;4.28;;;;;;;34.77;37.01;101375.91;5014043;28;20042;-72
2021/07/27 09:26:21;;;;;;;6.45;4.20;;;;;;;34.58;38.01;101381.66;5017884;28;20030;-72
2021/07/27 09:29:07;;;;;;;5.70;4.55;;;;;;;34.68;38.40;101371.47;5017392;28;20358;-73
2021/07/27 09:31:54;;;;;;;8.88;4.90;;;;;;;35.27;37.63;101368.53;5018029;28;20135;-72
2021/07/27 09:34:40;;;;;;;5.43;4.30;;;;;;;35.44;36.79;101369.41;5017626;28;20048;-72
2021/07/27 09:37:26;;;;;;;6.78;5.00;;;;;;;35.82;37.37;101371.44;5016934;28;20099;-72
2021/07/27 09:40:12;;;;;;;8.60;5.15;;;;;;;35.75;37.49;101373.16;5017164;28;20036;-72
2021/07/27 09:42:59;;;;;;;9.82;5.07;;;;;;;36.07;37.68;101363.03;5004126;28;20022;-71
2021/07/27 09:45:47;;;;;;;12.75;5.25;;;;;;;35.92;37.53;101369.38;5015989;28;20030;-71
2021/07/27 09:48:36;;;;;;;7.38;4.75;;;;;;;35.72;38.05;101358.00;5017285;28;20048;-71
2021/07/27 09:51:21;;;;;;;10.07;6.05;;;;;;;35.76;38.28;101358.50;5017607;28;20029;-71
2021/07/27 09:54:07;;;;;;;8.30;4.50;;;;;;;35.39;38.27;101347.28;5004634;28;20108;-71
2021/07/27 09:56:54;;;;;;;9.23;5.43;;;;;;;35.32;39.56;101335.34;5018738;28;20072;-71
2021/07/27 09:59:40;;;;;;;8.80;4.60;;;;;;;35.54;37.34;101331.91;5017593;28;20041;-71
2021/07/27 10:02:27;;;;;;;7.60;4.70;;;;;;;35.66;37.83;101328.66;5017520;28;20425;-72
2021/07/27 12:04:10;;;;;;;9.30;5.70;;;;;;;37.72;35.01;101265.78;5545063;23;20353;-73
2021/07/27 12:06:57;;;;;;;12.10;5.97;;;;;;;37.40;34.68;101266.94;4903001;29;20387;-73
2021/07/27 12:09:43;;;;;;;9.35;5.47;;;;;;;37.06;35.40;101263.84;4902157;29;20087;-73
2021/07/27 12:12:28;;;;;;;20.08;6.00;;;;;;;37.32;34.71;101269.75;4902417;29;20511;-71
2021/07/27 12:15:17;;;;;;;10.70;5.20;;;;;;;37.50;34.97;101264.81;4903154;29;20037;-71
2021/07/27 12:18:03;;;;;;;11.10;5.15;;;;;;;37.83;34.29;101266.16;4903719;29;20024;-71
2021/07/27 12:20:48;;;;;;;8.73;4.82;;;;;;;37.44;33.69;101262.81;4902164;29;20047;-71
2021/07/27 12:23:34;;;;;;;11.27;5.57;;;;;;;37.61;34.36;101258.88;4903163;29;20095;-71
2021/07/27 12:26:20;;;;;;;15.45;6.72;;;;;;;38.08;33.80;101261.25;4903016;29;20373;-71
2021/07/27 12:29:07;;;;;;;8.18;5.50;;;;;;;38.10;33.13;101254.56;4902900;29;20028;-71
2021/07/27 12:31:52;;;;;;;19.23;8.05;;;;;;;37.80;34.06;101249.28;4902986;29;20040;-71
2021/07/27 12:34:38;;;;;;;11.93;5.70;;;;;;;37.53;34.15;101245.25;4902685;29;20071;-72
2021/07/27 12:37:24;;;;;;;6.97;5.97;;;;;;;37.56;34.04;101238.59;4903176;29;20067;-72
2021/07/27 12:40:10;;;;;;;11.35;6.20;;;;;;;37.25;33.60;101240.63;4901751;29;20074;-71
2021/07/27 12:42:56;;;;;;;13.25;5.55;;;;;;;37.66;34.16;101240.03;4902895;29;20422;-71
2021/07/27 12:45:43;;;;;;;10.48;5.32;;;;;;;37.98;33.79;101238.78;4902581;29;20092;-71
2021/07/27 12:48:31;;;;;;;8.65;5.80;;;;;;;37.56;34.28;101230.38;4902957;29;20024;-71
2021/07/27 12:51:20;;;;;;;11.40;5.50;;;;;;;37.34;34.32;101225.84;4901571;29;20457;-71
2021/07/27 12:54:06;;;;;;;11.40;5.82;;;;;;;37.49;35.06;101224.78;4902691;29;20370;-71
2021/07/27 12:56:52;;;;;;;10.88;5.85;;;;;;;37.41;34.28;101226.78;4901661;29;20063;-70
2021/07/27 12:59:40;;;;;;;13.82;5.28;;;;;;;36.79;34.67;101226.16;4902270;29;20123;-71
2021/07/27 13:02:26;;;;;;;13.00;5.53;;;;;;;36.73;33.84;101224.16;4902320;29;20035;-71
2021/07/27 13:05:12;;;;;;;8.27;5.22;;;;;;;37.11;33.81;101228.59;4902088;29;20044;-71
2021/07/27 13:07:58;;;;;;;10.40;5.45;;;;;;;37.18;34.26;101220.53;4902443;29;20029;-72
2021/07/27 13:10:44;;;;;;;17.05;5.90;;;;;;;37.35;33.35;101225.66;4902119;29;20161;-73
2021/07/27 13:13:29;;;;;;;12.18;5.47;;;;;;;37.25;33.40;101218.75;4901984;29;20029;-73
2021/07/27 13:16:19;;;;;;;8.80;5.45;;;;;;;37.43;33.01;101216.50;4900987;29;20044;-73
2021/07/27 13:19:04;;;;;;;12.00;6.13;;;;;;;37.30;33.29;101214.44;4902625;29;20035;-74
2021/07/27 13:21:53;;;;;;;13.00;6.07;;;;;;;37.18;32.31;101207.72;4901036;29;20042;-74
2021/07/27 13:24:39;;;;;;;9.98;6.30;;;;;;;37.45;33.37;101209.81;4902180;29;20040;-73
2021/07/27 13:27:25;;;;;;;11.50;5.53;;;;;;;37.60;32.32;101212.59;4901463;29;20108;-73
2021/07/27 13:30:10;;;;;;;11.13;5.65;;;;;;;37.59;32.41;101211.75;4900966;29;20443;-72
2021/07/27 13:32:56;;;;;;;8.98;5.28;;;;;;;37.60;31.76;101207.97;4901026;29;20039;-72
2021/07/27 13:35:42;;;;;;;10.07;5.75;;;;;;;37.15;32.32;101201.75;4901321;29;20509;-73
2021/07/27 13:38:28;;;;;;;22.25;8.70;;;;;;;37.38;32.04;101203.41;4901626;29;20124;-73
2021/07/27 13:41:14;;;;;;;18.05;9.52;;;;;;;37.55;32.31;101199.44;4901442;29;20088;-73
2021/07/27 13:43:59;;;;;;;10.40;5.93;;;;;;;37.67;31.87;101199.84;4901504;29;20064;-73
2021/07/27 13:46:45;;;;;;;9.02;5.78;;;;;;;37.43;32.68;101192.75;4901250;29;20446;-73
2021/07/27 13:49:31;;;;;;;12.73;5.75;;;;;;;37.11;32.82;101190.34;4901056;29;20119;-73
2021/07/27 13:52:17;;;;;;;12.02;5.50;;;;;;;37.69;32.92;101192.31;4900490;29;20032;-73
2021/07/27 13:55:06;;;;;;;13.68;6.15;;;;;;;37.47;33.37;101195.94;4901376;29;20441;-73
2021/07/27 13:58:47;;;;;;;13.10;5.93;;;;;;;37.31;33.43;101196.13;4900391;29;20044;-72
2021/07/27 14:01:33;;;;;;;14.13;5.95;;;;;;;37.47;33.53;101185.00;4901305;29;20033;-71
2021/07/27 14:04:19;;;;;;;10.05;5.65;;;;;;;36.97;33.46;101196.63;4900042;29;20084;-71
2021/07/27 14:07:12;;;;;;;20.05;6.10;;;;;;;36.82;33.75;101184.81;4900766;29;20391;-71
2021/07/27 14:09:59;;;;;;;13.35;5.78;;;;;;;36.96;33.66;101177.69;4901249;29;20198;-72
2021/07/27 14:12:45;;;;;;;9.80;5.30;;;;;;;37.39;33.68;101193.31;4901902;29;20040;-72
2021/07/27 14:15:31;;;;;;;11.52;5.97;;;;;;;37.60;34.25;101182.50;4901241;29;20033;-72
2021/07/27 14:18:17;;;;;;;11.20;5.25;;;;;;;37.44;33.71;101186.22;4901620;29;20108;-72
2021/07/27 14:21:02;;;;;;;11.00;5.90;;;;;;;37.34;33.35;101184.81;4900735;29;20032;-72
2021/07/27 14:23:48;;;;;;;12.43;5.88;;;;;;;37.53;33.53;101181.53;4901282;29;20063;-72
2021/07/27 14:26:35;;;;;;;11.68;5.70;;;;;;;37.14;33.46;101181.81;4900647;29;20042;-72
2021/07/27 14:29:24;;;;;;;12.75;6.18;;;;;;;37.26;34.52;101180.31;4900123;29;20047;-71
2021/07/27 14:32:10;;;;;;;10.05;5.78;;;;;;;37.35;34.02;101175.56;4900681;29;20036;-72
2021/07/27 14:34:56;;;;;;;10.98;5.80;;;;;;;37.27;33.78;101179.25;4900389;29;20099;-72
2021/07/27 14:37:42;;;;;;;12.65;6.00;;;;;;;37.02;34.11;101172.31;4901036;29;20373;-71
2021/07/27 14:44:10;;;;;;;11.85;6.07;;;;;;;36.87;35.21;101167.84;4901455;29;20450;-71
2021/07/27 14:46:56;;;;;;;10.02;5.97;;;;;;;36.85;34.02;101170.78;4900501;29;20042;-72
2021/07/27 14:49:41;;;;;;;13.88;6.57;;;;;;;37.04;34.92;101170.25;4901261;29;20071;-72
2021/07/27 14:52:27;;;;;;;15.25;5.90;;;;;;;36.66;34.34;101165.81;4900282;29;20028;-72
2021/07/27 14:55:13;;;;;;;16.60;6.30;;;;;;;36.73;34.07;101165.94;4900662;29;20024;-71
2021/07/27 14:57:59;;;;;;;14.55;6.30;;;;;;;36.90;33.85;101173.81;4899608;29;20474;-71
2021/07/27 15:00:45;;;;;;;15.25;6.60;;;;;;;37.11;34.41;101171.19;4900558;29;20040;-72
2021/07/27 15:03:31;;;;;;;17.80;6.30;;;;;;;37.07;34.13;101172.59;4899324;29;20460;-72
2021/07/27 15:06:17;;;;;;;10.05;5.97;;;;;;;36.93;34.04;101167.13;4900513;29;20037;-72
2021/07/27 15:09:04;;;;;;;12.88;6.32;;;;;;;37.04;35.39;101162.03;4899811;29;20041;-71
2021/07/27 15:11:50;;;;;;;11.95;6.20;;;;;;;36.82;34.40;101160.22;4900482;29;20040;-72
2021/07/27 15:14:36;;;;;;;15.82;6.18;;;;;;;36.94;34.12;101166.09;4900199;29;20070;-72
2021/07/27 15:17:22;;;;;;;12.27;6.25;;;;;;;36.69;34.89;101156.41;4900068;29;20092;-72
2021/07/27 15:20:08;;;;;;;14.35;6.28;;;;;;;37.03;34.67;101160.34;4900534;29;20173;-71
2021/07/27 15:22:54;;;;;;;16.63;6.07;;;;;;;37.03;35.00;101149.41;4899958;29;20025;-71
2021/07/27 15:25:41;;;;;;;10.20;5.70;;;;;;;37.01;34.39;101146.03;4900221;29;20099;-70
2021/07/27 15:28:27;;;;;;;10.57;6.15;;;;;;;36.96;33.63;101144.91;4899232;29;20042;-71
2021/07/27 15:31:13;;;;;;;17.83;6.10;;;;;;;37.08;34.78;101144.22;4899551;29;20105;-71
2021/07/27 15:33:59;;;;;;;9.57;5.75;;;;;;;37.08;34.56;101138.78;4898975;29;20100;-71
2021/07/27 15:36:44;;;;;;;15.45;6.13;;;;;;;36.54;34.51;101131.78;4900268;29;20339;-72
2021/07/27 15:39:30;;;;;;;13.18;6.50;;;;;;;36.45;35.87;101134.75;4899431;29;20100;-72
2021/07/27 15:42:16;;;;;;;11.50;6.05;;;;;;;36.17;37.21;101125.38;4899894;29;20021;-71
2021/07/27 15:45:05;;;;;;;15.07;6.35;;;;;;;36.24;37.38;101127.22;4900016;29;20099;-71
2021/07/27 15:47:51;;;;;;;19.10;7.65;;;;;;;36.50;37.53;101119.53;4899844;29;20453;-71
2021/07/27 15:50:37;;;;;;;13.75;6.72;;;;;;;36.56;39.03;101120.66;4899833;29;20028;-71
2021/07/27 15:53:23;;;;;;;14.23;6.68;;;;;;;36.66;38.34;101123.97;4899796;29;20025;-71
2021/07/27 15:56:08;;;;;;;14.02;6.55;;;;;;;36.47;38.83;101116.31;4899385;29;20462;-72
2021/07/27 15:58:55;;;;;;;14.80;6.20;;;;;;;36.33;38.97;101117.97;4899599;29;20458;-72
2021/07/27 16:01:41;;;;;;;12.88;6.55;;;;;;;36.08;39.65;101116.41;4900045;29;20043;-71
2021/07/27 16:04:27;;;;;;;14.93;6.50;;;;;;;36.00;39.47;101108.25;4899012;29;20064;-71
2021/07/27 16:07:13;;;;;;;10.55;6.45;;;;;;;35.82;39.88;101118.63;4899734;29;20029;-72
2021/07/27 16:09:58;;;;;;;10.50;6.25;;;;;;;36.14;40.27;101117.56;4898755;29;20461;-71
2021/07/27 16:12:44;;;;;;;9.57;6.32;;;;;;;35.77;40.28;101117.47;4899461;29;20454;-72
2021/07/27 16:15:30;;;;;;;9.23;6.20;;;;;;;35.89;41.28;101119.59;4899097;29;20093;-72
2021/07/27 16:22:35;;;;;;;10.23;6.28;;;;;;;35.89;40.84;101121.47;4898364;29;20071;-72
2021/07/27 16:25:20;;;;;;;9.27;6.05;;;;;;;35.76;41.03;101115.78;4899941;29;20029;-71
2021/07/27 16:28:06;;;;;;;9.95;6.32;;;;;;;35.72;40.39;101112.53;4899048;29;20484;-72
2021/07/27 16:30:52;;;;;;;12.20;6.43;;;;;;;35.86;41.01;101111.78;4900315;29;20044;-73
2021/07/27 16:33:38;;;;;;;14.98;7.20;;;;;;;35.82;42.07;101120.50;4905789;29;20105;-72
2021/07/27 16:36:24;;;;;;;11.98;7.00;;;;;;;35.78;41.48;101122.75;4899276;29;20434;-72
2021/07/27 16:39:10;;;;;;;13.23;6.60;;;;;;;35.82;42.45;101117.75;4898826;29;20055;-71
2021/07/27 16:41:56;;;;;;;11.75;7.38;;;;;;;35.74;42.19;101123.22;4899252;29;20473;-71
2021/07/27 16:44:42;;;;;;;10.55;7.43;;;;;;;35.68;42.97;101121.22;4899332;29;20115;-72
2021/07/27 16:47:27;;;;;;;10.13;7.10;;;;;;;35.58;43.28;101116.00;4898831;29;20033;-72
2021/07/27 16:50:13;;;;;;;10.38;7.22;;;;;;;35.35;44.40;101123.25;4899179;29;20032;-72
2021/07/27 16:52:59;;;;;;;12.43;7.38;;;;;;;35.53;44.19;101118.41;4901062;29;20518;-72
2021/07/27 16:55:45;;;;;;;11.48;7.03;;;;;;;35.25;44.04;101122.59;4903110;29;20443;-72
2021/07/27 16:58:31;;;;;;;18.60;7.30;;;;;;;35.38;44.26;101128.34;4902628;29;20029;-72
2021/07/27 17:01:16;;;;;;;13.43;7.05;;;;;;;35.24;44.49;101135.34;4903435;29;20370;-72
2021/07/27 19:34:13;;;;;;;9.10;6.45;;;;;;;32.07;66.64;101157.25;5281221;23;20052;-72
2021/07/27 19:36:59;;;;;;;9.65;6.80;;;;;;;32.04;66.49;101147.56;4918045;29;20040;-72
2021/07/27 19:39:47;;;;;;;12.10;6.40;;;;;;;32.28;65.91;101150.53;4917487;29;20452;-72
2021/07/27 19:51:54;;;;;;;9.20;6.90;;;;;;;32.12;67.12;101158.50;4917555;29;20024;-72
2021/07/27 19:54:40;;;;;;;8.73;6.20;;;;;;;31.71;68.75;101153.63;4917730;29;20055;-71
2021/07/27 19:57:26;;;;;;;8.65;6.30;;;;;;;31.93;68.37;101165.94;4917200;29;20051;-73
2021/07/27 20:00:12;;;;;;;8.48;6.38;;;;;;;32.01;66.65;101168.72;4917870;29;20095;-72
2021/07/27 20:02:59;;;;;;;12.48;7.10;;;;;;;32.00;65.87;101170.56;4917237;29;20206;-71
2021/07/27 20:05:45;;;;;;;10.07;6.28;;;;;;;32.13;65.04;101168.34;4917383;29;20043;-72
2021/07/27 20:08:30;;;;;;;10.43;7.03;;;;;;;31.98;67.27;101169.03;4917406;29;20064;-71
2021/07/27 20:11:18;;;;;;;8.10;6.80;;;;;;;31.64;70.61;101167.91;4917375;29;20035;-72
2021/07/27 20:14:04;;;;;;;10.38;6.85;;;;;;;31.53;73.21;101160.81;4917094;29;20372;-70
2021/07/27 20:16:50;;;;;;;10.48;7.20;;;;;;;31.65;74.88;101166.91;4916800;29;20028;-71
2021/07/27 20:19:36;;;;;;;13.13;7.20;;;;;;;31.80;73.10;101166.28;4917649;29;20035;-71
2021/07/27 20:22:22;;;;;;;11.43;6.90;;;;;;;31.85;68.74;101174.81;4916898;29;20036;-71
2021/07/27 20:25:09;;;;;;;8.15;6.80;;;;;;;31.66;70.15;101171.31;4917509;29;20028;-70
2021/07/27 20:27:54;;;;;;;8.93;5.75;;;;;;;31.66;68.86;101171.31;4920882;29;20028;-70
2021/07/27 20:30:41;;;;;;;9.38;6.10;;;;;;;31.33;71.88;101175.44;4920990;29;20035;-71
2021/07/27 20:33:30;;;;;;;7.18;5.45;;;;;;;31.61;70.34;101181.78;4920716;29;20048;-71
2021/07/27 20:36:16;;;;;;;16.58;6.20;;;;;;;31.60;71.98;101180.03;4920419;29;20028;-71
2021/07/27 20:39:03;;;;;;;10.30;5.72;;;;;;;31.59;70.80;101175.63;4920735;29;20032;-71
2021/07/27 20:41:49;;;;;;;7.78;6.15;;;;;;;31.39;73.17;101174.88;4920602;29;20020;-71
2021/07/27 20:44:35;;;;;;;10.57;5.80;;;;;;;31.34;72.98;101169.88;4920882;29;20406;-70
2021/07/27 20:47:21;;;;;;;9.25;6.20;;;;;;;31.43;72.95;101171.69;4919630;29;20087;-71
2021/07/27 20:50:08;;;;;;;6.68;5.50;;;;;;;31.38;73.24;101174.00;4921195;29;20039;-71
2021/07/27 20:52:54;;;;;;;10.00;5.55;;;;;;;31.48;72.77;101175.81;4919980;29;20031;-71
2021/07/27 20:55:39;;;;;;;6.80;5.55;;;;;;;31.66;71.67;101174.88;4920452;29;20442;-70
2021/07/27 20:58:25;;;;;;;9.50;5.70;;;;;;;31.07;77.16;101177.09;4919859;29;20373;-69
2021/07/27 21:01:11;;;;;;;9.85;5.75;;;;;;;31.14;76.74;101181.75;4920906;29;20032;-70
2021/07/27 21:03:56;;;;;;;7.72;5.40;;;;;;;31.16;77.37;101178.91;4920263;29;20028;-70
2021/07/27 21:06:42;;;;;;;10.18;5.65;;;;;;;31.13;77.17;101180.06;4920096;29;20373;-70
2021/07/27 21:09:28;;;;;;;7.70;5.88;;;;;;;31.11;77.67;101186.63;4920223;29;20414;-70
2021/07/27 21:12:15;;;;;;;6.60;5.22;;;;;;;31.03;78.84;101189.22;4919940;29;20036;-69
2021/07/27 21:15:01;;;;;;;9.38;5.57;;;;;;;31.22;75.74;101189.16;4920153;29;20461;-70
2021/07/27 21:17:47;;;;;;;8.68;5.32;;;;;;;31.05;75.46;101190.75;4920370;29;20032;-70
2021/07/27 21:20:36;;;;;;;10.27;5.38;;;;;;;30.50;78.34;101188.78;4920265;29;20413;-70
2021/07/27 21:23:22;;;;;;;8.02;5.20;;;;;;;30.46;79.13;101194.66;4919815;29;20028;-70
2021/07/27 21:26:10;;;;;;;8.23;5.90;;;;;;;30.78;76.76;101195.25;4919910;29;20032;-70
2021/07/27 21:28:57;;;;;;;10.90;5.65;;;;;;;30.62;77.53;101194.94;4919724;29;20028;-71
2021/07/27 21:31:43;;;;;;;8.20;5.32;;;;;;;30.68;77.14;101199.75;4920243;29;20166;-71
2021/07/27 21:34:29;;;;;;;12.27;5.22;;;;;;;30.66;77.70;101194.47;4920848;29;20048;-71
2021/07/27 21:37:14;;;;;;;6.78;5.50;;;;;;;30.78;77.46;101193.38;4919418;29;20055;-71
2021/07/27 21:40:00;;;;;;;9.02;5.47;;;;;;;30.74;76.33;101193.81;4919362;29;20055;-70
2021/07/27 21:42:46;;;;;;;7.70;5.40;;;;;;;30.67;77.48;101200.75;4922002;29;20040;-71
2021/07/27 21:45:32;;;;;;;8.15;5.03;;;;;;;30.86;75.32;101196.19;4921650;29;20059;-70
2021/07/27 21:48:18;;;;;;;10.63;5.50;;;;;;;30.58;76.83;101204.34;4921027;29;20032;-70
2021/07/27 21:51:04;;;;;;;7.32;5.05;;;;;;;30.05;80.70;101209.22;4920766;29;20365;-70
2021/07/27 21:53:49;;;;;;;7.88;4.57;;;;;;;30.40;78.35;101193.38;4905736;29;20096;-70
2021/07/27 21:56:35;;;;;;;7.45;5.50;;;;;;;30.31;78.59;101202.34;4919491;29;20055;-70
2021/07/27 21:59:21;;;;;;;8.20;5.13;;;;;;;30.21;79.94;101187.94;4919391;29;20036;-70
2021/07/27 22:02:07;;;;;;;10.35;4.93;;;;;;;30.03;81.64;101194.13;4919478;29;20028;-69
2021/07/27 22:04:52;;;;;;;7.50;5.43;;;;;;;30.02;81.88;101195.97;4918998;29;20115;-71
2021/07/27 22:07:38;;;;;;;9.77;4.68;;;;;;;29.75;84.46;101205.72;4919132;29;20036;-70
2021/07/27 22:10:24;;;;;;;7.25;5.10;;;;;;;30.00;82.43;101200.69;4919537;29;20043;-70
2021/07/27 22:13:10;;;;;;;9.77;5.00;;;;;;;30.24;80.41;101187.66;4921441;29;20121;-70
2021/07/27 22:15:56;;;;;;;7.13;5.43;;;;;;;30.38;79.56;101187.22;4921604;29;20035;-70
2021/07/27 22:18:42;;;;;;;7.95;5.03;;;;;;;30.05;80.72;101189.47;4921037;29;20024;-70
2021/07/27 22:21:27;;;;;;;6.15;5.20;;;;;;;30.17;79.71;101189.22;4919371;29;20428;-70
2021/07/27 22:24:13;;;;;;;8.05;5.07;;;;;;;30.15;81.10;101195.75;4918841;29;20426;-70
2021/07/27 22:26:59;;;;;;;8.90;5.50;;;;;;;30.12;88.20;101198.69;4918703;29;20333;-70
2021/07/27 22:29:45;;;;;;;7.45;5.40;;;;;;;30.10;87.26;101198.81;4919441;29;20043;-70
2021/07/27 22:32:30;;;;;;;8.95;5.80;;;;;;;29.77;92.66;101196.47;4918845;29;20028;-70
2021/07/27 22:35:17;;;;;;;12.98;6.20;;;;;;;29.96;94.64;101188.44;4918456;29;20106;-71
2021/07/27 22:38:03;;;;;;;9.15;5.90;;;;;;;29.97;95.25;101187.44;4918982;29;20453;-69
2021/07/27 22:40:48;;;;;;;8.13;6.20;;;;;;;29.76;96.78;101194.78;4918465;29;20453;-69
2021/07/27 22:43:34;;;;;;;6.80;5.60;;;;;;;29.70;96.86;101187.19;4918714;29;20366;-70
2021/07/27 22:46:20;;;;;;;8.80;6.18;;;;;;;29.96;93.91;101187.56;4918246;29;20115;-70
2021/07/27 22:49:06;;;;;;;9.25;6.82;;;;;;;29.74;97.71;101191.34;4917692;29;20042;-69
2021/07/27 22:51:51;;;;;;;13.27;6.22;;;;;;;29.46;100.00;101193.91;4918273;29;20028;-70
2021/07/27 22:54:38;;;;;;;7.65;6.85;;;;;;;29.30;100.00;101194.44;4918479;29;20122;-69
2021/07/27 22:57:23;;;;;;;10.70;6.75;;;;;;;29.39;99.82;101196.31;4917989;29;20105;-69
2021/07/27 23:00:10;;;;;;;10.23;6.88;;;;;;;29.03;100.00;101195.94;4918365;29;20036;-70
2021/07/27 23:02:55;;;;;;;8.73;6.80;;;;;;;29.11;100.00;101191.63;4918261;29;20028;-70
2021/07/27 23:05:41;;;;;;;10.25;6.40;;;;;;;29.14;100.00;101191.34;4918014;29;20030;-70
2021/07/27 23:08:27;;;;;;;9.07;6.50;;;;;;;29.22;100.00;101187.97;4918259;29;20043;-70
2021/07/27 23:11:13;;;;;;;8.43;6.18;;;;;;;28.89;100.00;101186.31;4918442;29;20043;-70
2021/07/27 23:13:59;;;;;;;8.15;6.20;;;;;;;28.90;100.00;101188.03;4917895;29;20059;-71
2021/07/27 23:16:45;;;;;;;9.02;6.10;;;;;;;28.77;100.00;101181.13;4917821;29;20032;-69
2021/07/27 23:19:31;;;;;;;7.95;6.03;;;;;;;28.41;100.00;101174.31;4918250;29;20036;-70
2021/07/27 23:22:17;;;;;;;8.70;5.55;;;;;;;28.60;100.00;101173.63;4917661;29;20351;-69
2021/07/27 23:25:20;;;;;;;7.53;6.15;;;;;;;28.69;100.00;101167.44;4918227;29;20042;-69
2021/07/27 23:28:06;;;;;;;8.90;6.43;;;;;;;28.40;100.00;101169.88;4917855;29;20457;-70
2021/07/27 23:30:52;;;;;;;7.38;5.60;;;;;;;28.75;100.00;101175.88;4917968;29;20037;-70
2021/07/27 23:33:38;;;;;;;7.60;6.10;;;;;;;28.80;100.00;101168.22;4917654;29;20048;-70
2021/07/27 23:36:24;;;;;;;10.32;5.82;;;;;;;28.57;100.00;101168.50;4917765;29;20028;-70
2021/07/27 23:39:09;;;;;;;12.05;6.40;;;;;;;28.29;100.00;101153.72;4917973;29;20040;-70
2021/07/27 23:41:55;;;;;;;7.50;6.00;;;;;;;28.24;100.00;101165.91;4917853;29;20090;-69
2021/07/27 23:44:41;;;;;;;8.32;6.22;;;;;;;28.46;100.00;101164.00;4917697;29;20027;-69
2021/07/27 23:47:27;;;;;;;12.80;6.05;;;;;;;28.52;100.00;101154.56;4917360;29;20461;-70
2021/07/27 23:50:13;;;;;;;7.60;5.85;;;;;;;28.75;100.00;101151.59;4917369;29;20055;-70
2021/07/27 23:52:58;;;;;;;9.00;5.97;;;;;;;28.90;100.00;101155.66;4917294;29;20069;-70
2021/07/27 23:55:44;;;;;;;7.63;5.95;;;;;;;28.21;100.00;101147.28;4917297;29;20162;-71
2021/07/27 23:58:30;;;;;;;6.75;6.05;;;;;;;28.69;100.00;101146.69;4916515;29;20032;-70
